sensor_id;sensor_type;location;lat;lon;timestamp;pressure;altitude;pressure_sealevel;temperature;humidity
22743;BME280;11538;48.884;8.696;2023-03-24T00:00:26;97837.25;;;12.91;100.00
22743;BME280;11538;48.884;8.696;2023-03-24T00:02:54;97835.66;;;12.90;100.00
22743;BME280;11538;48.884;8.696;2023-03-24T00:05:22;97838.16;;;12.95;100.00
22743;BME280;11538;48.884;8.696;2023-03-24T00:07:49;97826.50;;;12.95;100.00
22743;BME280;11538;48.884;8.696;2023-03-24T00:10:21;97824.91;;;12.94;100.00
22743;BME280;11538;48.884;8.696;2023-03-24T00:12:49;97814.69;;;12.91;100.00
22743;BME280;11538;48.884;8.696;2023-03-24T00:15:19;97815.47;;;12.91;100.00
22743;BME280;11538;48.884;8.696;2023-03-24T00:17:48;97817.19;;;12.96;100.00
22743;BME280;11538;48.884;8.696;2023-03-24T00:20:19;97816.50;;;12.99;100.00
22743;BME280;11538;48.884;8.696;2023-03-24T00:22:50;97805.50;;;12.95;100.00
22743;BME280;11538;48.884;8.696;2023-03-24T00:25:26;97799.59;;;12.93;100.00
22743;BME280;11538;48.884;8.696;2023-03-24T00:27:55;97794.97;;;12.94;100.00
22743;BME280;11538;48.884;8.696;2023-03-24T00:30:24;97791.34;;;12.90;100.00
22743;BME280;11538;48.884;8.696;2023-03-24T00:32:52;97788.63;;;12.90;100.00
22743;BME280;11538;48.884;8.696;2023-03-24T00:35:19;97789.84;;;12.92;100.00
22743;BME280;11538;48.884;8.696;2023-03-24T00:37:46;97793.47;;;12.96;100.00
22743;BME280;11538;48.884;8.696;2023-03-24T00:40:18;97783.94;;;13.02;100.00
22743;BME280;11538;48.884;8.696;2023-03-24T00:42:46;97784.84;;;13.07;100.00
22743;BME280;11538;48.884;8.696;2023-03-24T00:45:18;97770.09;;;13.08;100.00
22743;BME280;11538;48.884;8.696;2023-03-24T00:47:46;97763.19;;;13.10;100.00
22743;BME280;11538;48.884;8.696;2023-03-24T00:50:18;97767.97;;;13.13;100.00
22743;BME280;11538;48.884;8.696;2023-03-24T00:52:46;97768.50;;;13.19;100.00
22743;BME280;11538;48.884;8.696;2023-03-24T00:55:15;97769.41;;;13.23;100.00
22743;BME280;11538;48.884;8.696;2023-03-24T00:57:46;97750.03;;;13.25;100.00
22743;BME280;11538;48.884;8.696;2023-03-24T01:00:23;97744.69;;;13.28;100.00
22743;BME280;11538;48.884;8.696;2023-03-24T01:02:54;97740.47;;;13.31;100.00
22743;BME280;11538;48.884;8.696;2023-03-24T01:05:27;97736.63;;;13.32;100.00
22743;BME280;11538;48.884;8.696;2023-03-24T01:08:00;97724.13;;;13.31;100.00
22743;BME280;11538;48.884;8.696;2023-03-24T01:10:38;97731.19;;;13.32;100.00
22743;BME280;11538;48.884;8.696;2023-03-24T01:13:28;97740.59;;;13.35;100.00
22743;BME280;11538;48.884;8.696;2023-03-24T01:15:55;97723.47;;;13.34;100.00
22743;BME280;11538;48.884;8.696;2023-03-24T01:18:23;97716.09;;;13.35;100.00
22743;BME280;11538;48.884;8.696;2023-03-24T01:20:52;97713.69;;;13.33;100.00
22743;BME280;11538;48.884;8.696;2023-03-24T01:23:24;97717.91;;;13.30;100.00
22743;BME280;11538;48.884;8.696;2023-03-24T01:25:52;97721.41;;;13.31;100.00
22743;BME280;11538;48.884;8.696;2023-03-24T01:28:23;97721.88;;;13.33;100.00
22743;BME280;11538;48.884;8.696;2023-03-24T01:30:52;97713.38;;;13.35;100.00
22743;BME280;11538;48.884;8.696;2023-03-24T01:33:20;97716.53;;;13.37;100.00
22743;BME280;11538;48.884;8.696;2023-03-24T01:35:48;97711.53;;;13.39;100.00
22743;BME280;11538;48.884;8.696;2023-03-24T01:38:15;97699.16;;;13.41;100.00
22743;BME280;11538;48.884;8.696;2023-03-24T01:40:45;97702.72;;;13.42;100.00
22743;BME280;11538;48.884;8.696;2023-03-24T01:43:20;97696.44;;;13.41;100.00
22743;BME280;11538;48.884;8.696;2023-03-24T01:48:42;97700.06;;;13.45;98.24
22743;BME280;11538;48.884;8.696;2023-03-24T01:54:00;97677.94;;;13.47;98.53
22743;BME280;11538;48.884;8.696;2023-03-24T01:56:33;97681.38;;;13.44;99.17
22743;BME280;11538;48.884;8.696;2023-03-24T01:59:06;97679.78;;;13.43;99.46
22743;BME280;11538;48.884;8.696;2023-03-24T02:01:35;97675.47;;;13.42;99.65
22743;BME280;11538;48.884;8.696;2023-03-24T02:04:05;97680.09;;;13.41;99.24
22743;BME280;11538;48.884;8.696;2023-03-24T02:06:37;97672.28;;;13.40;99.10
22743;BME280;11538;48.884;8.696;2023-03-24T02:09:09;97678.41;;;13.37;99.92
22743;BME280;11538;48.884;8.696;2023-03-24T02:11:39;97669.34;;;13.33;100.00
22743;BME280;11538;48.884;8.696;2023-03-24T02:14:07;97666.19;;;13.30;100.00
22743;BME280;11538;48.884;8.696;2023-03-24T02:17:14;97677.75;;;13.27;100.00
22743;BME280;11538;48.884;8.696;2023-03-24T02:32:30;97674.22;;;13.27;100.00
22743;BME280;11538;48.884;8.696;2023-03-24T02:35:39;97675.69;;;13.24;99.96
22743;BME280;11538;48.884;8.696;2023-03-24T02:38:53;97685.00;;;13.23;100.00
22743;BME280;11538;48.884;8.696;2023-03-24T02:41:45;97688.41;;;13.20;100.00
22743;BME280;11538;48.884;8.696;2023-03-24T02:44:29;97685.47;;;13.13;100.00
22743;BME280;11538;48.884;8.696;2023-03-24T02:52:50;97667.25;;;13.01;100.00
22743;BME280;11538;48.884;8.696;2023-03-24T02:56:37;97664.56;;;12.89;100.00
22743;BME280;11538;48.884;8.696;2023-03-24T02:59:16;97652.66;;;12.81;100.00
22743;BME280;11538;48.884;8.696;2023-03-24T03:01:57;97649.47;;;12.79;100.00
22743;BME280;11538;48.884;8.696;2023-03-24T03:04:31;97647.81;;;12.74;100.00
22743;BME280;11538;48.884;8.696;2023-03-24T03:07:04;97646.22;;;12.61;100.00
22743;BME280;11538;48.884;8.696;2023-03-24T03:09:42;97645.53;;;12.51;100.00
22743;BME280;11538;48.884;8.696;2023-03-24T03:12:12;97640.00;;;12.48;100.00
22743;BME280;11538;48.884;8.696;2023-03-24T03:14:47;97623.31;;;12.49;100.00
22743;BME280;11538;48.884;8.696;2023-03-24T03:17:21;97619.47;;;12.50;100.00
22743;BME280;11538;48.884;8.696;2023-03-24T03:19:59;97618.91;;;12.57;100.00
22743;BME280;11538;48.884;8.696;2023-03-24T03:22:40;97620.72;;;12.65;100.00
22743;BME280;11538;48.884;8.696;2023-03-24T03:25:12;97619.56;;;12.66;100.00
22743;BME280;11538;48.884;8.696;2023-03-24T03:27:43;97622.06;;;12.71;100.00
22743;BME280;11538;48.884;8.696;2023-03-24T03:30:27;97626.38;;;12.72;100.00
22743;BME280;11538;48.884;8.696;2023-03-24T03:33:07;97630.69;;;12.73;100.00
22743;BME280;11538;48.884;8.696;2023-03-24T03:35:45;97637.00;;;12.78;100.00
22743;BME280;11538;48.884;8.696;2023-03-24T03:38:59;97641.31;;;12.79;100.00
22743;BME280;11538;48.884;8.696;2023-03-24T03:41:29;97643.25;;;12.78;100.00
22743;BME280;11538;48.884;8.696;2023-03-24T03:43:57;97633.84;;;12.76;100.00
22743;BME280;11538;48.884;8.696;2023-03-24T03:46:24;97636.47;;;12.72;100.00
22743;BME280;11538;48.884;8.696;2023-03-24T03:48:52;97635.13;;;12.66;100.00
22743;BME280;11538;48.884;8.696;2023-03-24T03:51:20;97639.75;;;12.65;100.00
22743;BME280;11538;48.884;8.696;2023-03-24T03:53:52;97636.72;;;12.67;100.00
22743;BME280;11538;48.884;8.696;2023-03-24T03:56:23;97639.97;;;12.72;100.00
22743;BME280;11538;48.884;8.696;2023-03-24T03:58:50;97638.72;;;12.82;100.00
22743;BME280;11538;48.884;8.696;2023-03-24T04:01:23;97641.28;;;12.91;100.00
22743;BME280;11538;48.884;8.696;2023-03-24T04:15:39;97671.25;;;12.91;100.00
22743;BME280;11538;48.884;8.696;2023-03-24T04:18:22;97668.50;;;12.91;100.00
22743;BME280;11538;48.884;8.696;2023-03-24T04:21:23;97649.69;;;12.86;100.00
22743;BME280;11538;48.884;8.696;2023-03-24T04:27:53;97660.16;;;12.71;100.00
22743;BME280;11538;48.884;8.696;2023-03-24T04:30:45;97662.88;;;12.71;100.00
22743;BME280;11538;48.884;8.696;2023-03-24T04:33:54;97682.38;;;12.73;100.00
22743;BME280;11538;48.884;8.696;2023-03-24T04:36:40;97708.44;;;12.75;100.00
22743;BME280;11538;48.884;8.696;2023-03-24T04:39:20;97712.75;;;12.76;100.00
22743;BME280;11538;48.884;8.696;2023-03-24T04:42:00;97729.97;;;12.80;100.00
22743;BME280;11538;48.884;8.696;2023-03-24T04:44:30;97745.63;;;12.83;100.00
22743;BME280;11538;48.884;8.696;2023-03-24T04:47:01;97756.97;;;12.85;100.00
22743;BME280;11538;48.884;8.696;2023-03-24T04:49:30;97764.00;;;12.86;100.00
22743;BME280;11538;48.884;8.696;2023-03-24T04:51:58;97778.28;;;12.70;100.00
22743;BME280;11538;48.884;8.696;2023-03-24T04:54:25;97786.88;;;12.60;100.00
22743;BME280;11538;48.884;8.696;2023-03-24T04:56:54;97802.50;;;12.51;100.00
22743;BME280;11538;48.884;8.696;2023-03-24T04:59:22;97804.16;;;12.43;100.00
22743;BME280;11538;48.884;8.696;2023-03-24T05:01:49;97808.41;;;12.53;100.00
22743;BME280;11538;48.884;8.696;2023-03-24T05:04:22;97807.50;;;12.61;100.00
22743;BME280;11538;48.884;8.696;2023-03-24T05:06:49;97813.06;;;12.65;100.00
22743;BME280;11538;48.884;8.696;2023-03-24T05:09:23;97810.34;;;12.65;100.00
22743;BME280;11538;48.884;8.696;2023-03-24T05:11:50;97802.97;;;12.65;100.00
22743;BME280;11538;48.884;8.696;2023-03-24T05:14:18;97805.69;;;12.65;100.00
22743;BME280;11538;48.884;8.696;2023-03-24T05:16:46;97785.97;;;12.68;100.00
22743;BME280;11538;48.884;8.696;2023-03-24T05:19:13;97781.22;;;12.65;100.00
22743;BME280;11538;48.884;8.696;2023-03-24T05:21:40;97790.50;;;12.64;100.00
22743;BME280;11538;48.884;8.696;2023-03-24T05:24:07;97795.03;;;12.60;100.00
22743;BME280;11538;48.884;8.696;2023-03-24T05:26:34;97806.25;;;12.58;100.00
22743;BME280;11538;48.884;8.696;2023-03-24T05:29:01;97816.34;;;12.58;100.00
22743;BME280;11538;48.884;8.696;2023-03-24T05:31:28;97814.75;;;12.57;100.00
22743;BME280;11538;48.884;8.696;2023-03-24T05:33:56;97810.75;;;12.54;100.00
22743;BME280;11538;48.884;8.696;2023-03-24T05:36:23;97800.91;;;12.50;100.00
22743;BME280;11538;48.884;8.696;2023-03-24T05:38:50;97796.91;;;12.47;100.00
22743;BME280;11538;48.884;8.696;2023-03-24T05:41:17;97801.13;;;12.45;100.00
22743;BME280;11538;48.884;8.696;2023-03-24T05:43:44;97798.84;;;12.34;100.00
22743;BME280;11538;48.884;8.696;2023-03-24T05:46:11;97783.72;;;12.24;100.00
22743;BME280;11538;48.884;8.696;2023-03-24T05:48:38;97783.63;;;12.21;100.00
22743;BME280;11538;48.884;8.696;2023-03-24T05:51:05;97778.19;;;12.21;100.00
22743;BME280;11538;48.884;8.696;2023-03-24T05:53:32;97776.59;;;12.20;100.00
22743;BME280;11538;48.884;8.696;2023-03-24T05:55:59;97781.56;;;12.18;100.00
22743;BME280;11538;48.884;8.696;2023-03-24T05:58:26;97767.50;;;12.16;100.00
22743;BME280;11538;48.884;8.696;2023-03-24T06:00:53;97760.13;;;12.16;100.00
22743;BME280;11538;48.884;8.696;2023-03-24T06:03:20;97757.31;;;12.12;100.00
22743;BME280;11538;48.884;8.696;2023-03-24T06:05:48;97764.66;;;12.12;100.00
22743;BME280;11538;48.884;8.696;2023-03-24T06:08:16;97765.47;;;12.12;100.00
22743;BME280;11538;48.884;8.696;2023-03-24T06:10:44;97766.38;;;12.17;100.00
22743;BME280;11538;48.884;8.696;2023-03-24T06:13:11;97761.19;;;12.24;100.00
22743;BME280;11538;48.884;8.696;2023-03-24T06:15:38;97752.16;;;12.32;100.00
22743;BME280;11538;48.884;8.696;2023-03-24T06:18:08;97751.25;;;12.40;100.00
22743;BME280;11538;48.884;8.696;2023-03-24T06:20:35;97761.09;;;12.45;100.00
22743;BME280;11538;48.884;8.696;2023-03-24T06:23:02;97756.94;;;12.48;100.00
22743;BME280;11538;48.884;8.696;2023-03-24T06:25:29;97762.94;;;12.53;100.00
22743;BME280;11538;48.884;8.696;2023-03-24T06:27:56;97764.78;;;12.62;100.00
22743;BME280;11538;48.884;8.696;2023-03-24T06:30:29;97771.25;;;12.69;100.00
22743;BME280;11538;48.884;8.696;2023-03-24T06:32:56;97769.44;;;12.73;100.00
22743;BME280;11538;48.884;8.696;2023-03-24T06:35:23;97777.38;;;12.79;100.00
22743;BME280;11538;48.884;8.696;2023-03-24T06:37:50;97778.97;;;12.80;100.00
22743;BME280;11538;48.884;8.696;2023-03-24T06:40:17;97776.69;;;12.82;100.00
22743;BME280;11538;48.884;8.696;2023-03-24T06:42:45;97779.75;;;12.80;100.00
22743;BME280;11538;48.884;8.696;2023-03-24T06:45:12;97778.28;;;12.83;100.00
22743;BME280;11538;48.884;8.696;2023-03-24T06:47:39;97785.75;;;12.86;100.00
22743;BME280;11538;48.884;8.696;2023-03-24T06:50:07;97783.41;;;12.84;100.00
22743;BME280;11538;48.884;8.696;2023-03-24T06:52:34;97788.03;;;12.84;100.00
22743;BME280;11538;48.884;8.696;2023-03-24T06:55:01;97787.94;;;12.80;100.00
22743;BME280;11538;48.884;8.696;2023-03-24T06:57:29;97792.09;;;12.78;100.00
22743;BME280;11538;48.884;8.696;2023-03-24T06:59:56;97803.00;;;12.78;100.00
22743;BME280;11538;48.884;8.696;2023-03-24T07:02:23;97807.97;;;12.76;100.00
22743;BME280;11538;48.884;8.696;2023-03-24T07:04:50;97812.19;;;12.73;100.00
22743;BME280;11538;48.884;8.696;2023-03-24T07:07:19;97810.59;;;12.72;100.00
22743;BME280;11538;48.884;8.696;2023-03-24T07:10:08;97819.22;;;12.74;100.00
22743;BME280;11538;48.884;8.696;2023-03-24T07:12:37;97818.84;;;12.76;100.00
22743;BME280;11538;48.884;8.696;2023-03-24T07:15:05;97819.66;;;12.76;100.00
22743;BME280;11538;48.884;8.696;2023-03-24T07:17:33;97819.22;;;12.74;100.00
22743;BME280;11538;48.884;8.696;2023-03-24T07:20:00;97824.88;;;12.69;100.00
22743;BME280;11538;48.884;8.696;2023-03-24T07:22:27;97825.19;;;12.67;100.00
22743;BME280;11538;48.884;8.696;2023-03-24T07:24:54;97827.00;;;12.63;100.00
22743;BME280;11538;48.884;8.696;2023-03-24T07:27:21;97825.19;;;12.67;100.00
22743;BME280;11538;48.884;8.696;2023-03-24T07:29:48;97827.25;;;12.70;100.00
22743;BME280;11538;48.884;8.696;2023-03-24T07:32:15;97823.38;;;12.71;100.00
22743;BME280;11538;48.884;8.696;2023-03-24T07:34:43;97833.72;;;12.78;100.00
22743;BME280;11538;48.884;8.696;2023-03-24T07:37:11;97842.47;;;12.84;100.00
22743;BME280;11538;48.884;8.696;2023-03-24T07:39:38;97841.78;;;12.87;100.00
22743;BME280;11538;48.884;8.696;2023-03-24T07:42:04;97849.63;;;12.89;100.00
22743;BME280;11538;48.884;8.696;2023-03-24T07:44:31;97852.00;;;12.90;100.00
22743;BME280;11538;48.884;8.696;2023-03-24T07:46:58;97856.31;;;12.91;100.00
22743;BME280;11538;48.884;8.696;2023-03-24T07:49:25;97857.78;;;12.89;100.00
22743;BME280;11538;48.884;8.696;2023-03-24T07:51:52;97862.88;;;12.90;100.00
22743;BME280;11538;48.884;8.696;2023-03-24T07:54:19;97852.44;;;12.92;100.00
22743;BME280;11538;48.884;8.696;2023-03-24T07:56:47;97822.41;;;12.89;100.00
22743;BME280;11538;48.884;8.696;2023-03-24T07:59:14;97792.56;;;12.80;100.00
22743;BME280;11538;48.884;8.696;2023-03-24T08:01:43;97795.63;;;12.78;100.00
22743;BME280;11538;48.884;8.696;2023-03-24T08:04:12;97793.47;;;12.71;100.00
22743;BME280;11538;48.884;8.696;2023-03-24T08:06:42;97790.97;;;12.79;100.00
22743;BME280;11538;48.884;8.696;2023-03-24T08:09:10;97786.44;;;12.83;100.00
22743;BME280;11538;48.884;8.696;2023-03-24T08:11:38;97774.31;;;12.93;100.00
22743;BME280;11538;48.884;8.696;2023-03-24T08:14:05;97746.06;;;12.97;100.00
22743;BME280;11538;48.884;8.696;2023-03-24T08:16:32;97706.84;;;12.98;100.00
22743;BME280;11538;48.884;8.696;2023-03-24T08:18:58;97737.13;;;12.97;100.00
22743;BME280;11538;48.884;8.696;2023-03-24T08:21:26;97748.09;;;13.00;100.00
22743;BME280;11538;48.884;8.696;2023-03-24T08:23:53;97754.22;;;13.10;100.00
22743;BME280;11538;48.884;8.696;2023-03-24T08:26:19;97749.22;;;13.24;100.00
22743;BME280;11538;48.884;8.696;2023-03-24T08:28:51;97770.44;;;13.31;100.00
22743;BME280;11538;48.884;8.696;2023-03-24T08:31:18;97769.44;;;13.36;100.00
22743;BME280;11538;48.884;8.696;2023-03-24T08:33:45;97777.84;;;13.43;100.00
22743;BME280;11538;48.884;8.696;2023-03-24T08:36:12;97775.31;;;13.50;100.00
22743;BME280;11538;48.884;8.696;2023-03-24T08:38:39;97778.72;;;13.59;100.00
22743;BME280;11538;48.884;8.696;2023-03-24T08:41:07;97791.41;;;13.68;100.00
22743;BME280;11538;48.884;8.696;2023-03-24T08:43:35;97796.94;;;13.71;100.00
22743;BME280;11538;48.884;8.696;2023-03-24T08:46:07;97807.97;;;13.75;100.00
22743;BME280;11538;48.884;8.696;2023-03-24T08:48:37;97814.88;;;13.72;100.00
22743;BME280;11538;48.884;8.696;2023-03-24T08:51:15;97825.91;;;13.76;100.00
22743;BME280;11538;48.884;8.696;2023-03-24T08:53:43;97805.69;;;13.77;100.00
22743;BME280;11538;48.884;8.696;2023-03-24T08:56:10;97805.69;;;13.77;100.00
22743;BME280;11538;48.884;8.696;2023-03-24T08:58:37;97810.69;;;13.75;100.00
22743;BME280;11538;48.884;8.696;2023-03-24T09:01:04;97814.09;;;13.72;100.00
22743;BME280;11538;48.884;8.696;2023-03-24T09:03:31;97819.53;;;13.72;100.00
22743;BME280;11538;48.884;8.696;2023-03-24T09:05:58;97822.59;;;13.70;100.00
22743;BME280;11538;48.884;8.696;2023-03-24T09:08:25;97816.38;;;13.70;100.00
22743;BME280;11538;48.884;8.696;2023-03-24T09:10:52;97819.09;;;13.70;100.00
22743;BME280;11538;48.884;8.696;2023-03-24T09:13:19;97817.97;;;13.71;100.00
22743;BME280;11538;48.884;8.696;2023-03-24T09:15:53;97814.63;;;13.78;100.00
22743;BME280;11538;48.884;8.696;2023-03-24T09:18:24;97819.84;;;13.83;100.00
22743;BME280;11538;48.884;8.696;2023-03-24T09:20:51;97824.59;;;13.86;100.00
22743;BME280;11538;48.884;8.696;2023-03-24T09:23:19;97820.72;;;13.99;100.00
22743;BME280;11538;48.884;8.696;2023-03-24T09:25:51;97823.50;;;14.15;100.00
22743;BME280;11538;48.884;8.696;2023-03-24T09:28:21;97821.34;;;14.37;100.00
22743;BME280;11538;48.884;8.696;2023-03-24T09:30:48;97821.09;;;14.42;100.00
22743;BME280;11538;48.884;8.696;2023-03-24T09:33:16;97819.94;;;14.43;100.00
22743;BME280;11538;48.884;8.696;2023-03-24T09:35:43;97806.75;;;14.45;100.00
22743;BME280;11538;48.884;8.696;2023-03-24T09:38:10;97814.19;;;14.61;100.00
22743;BME280;11538;48.884;8.696;2023-03-24T09:40:39;97811.41;;;14.73;100.00
22743;BME280;11538;48.884;8.696;2023-03-24T09:43:40;97807.91;;;14.89;100.00
22743;BME280;11538;48.884;8.696;2023-03-24T09:46:27;97806.66;;;15.02;100.00
22743;BME280;11538;48.884;8.696;2023-03-24T09:48:55;97812.06;;;15.34;100.00
22743;BME280;11538;48.884;8.696;2023-03-24T09:51:43;97805.34;;;15.48;100.00
22743;BME280;11538;48.884;8.696;2023-03-24T09:56:54;97804.50;;;15.63;97.82
22743;BME280;11538;48.884;8.696;2023-03-24T09:59:37;97797.34;;;15.75;100.00
22743;BME280;11538;48.884;8.696;2023-03-24T10:02:20;97794.97;;;15.73;99.87
22743;BME280;11538;48.884;8.696;2023-03-24T10:04:48;97818.63;;;15.65;96.27
22743;BME280;11538;48.884;8.696;2023-03-24T10:07:28;97810.13;;;15.71;92.58
22743;BME280;11538;48.884;8.696;2023-03-24T10:09:59;97811.06;;;15.95;94.28
22743;BME280;11538;48.884;8.696;2023-03-24T10:12:36;97809.63;;;16.01;89.49
22743;BME280;11538;48.884;8.696;2023-03-24T10:18:35;97812.66;;;15.96;91.45
22743;BME280;11538;48.884;8.696;2023-03-24T10:21:19;97825.00;;;15.89;90.50
22743;BME280;11538;48.884;8.696;2023-03-24T10:29:29;97834.81;;;15.74;89.63
22743;BME280;11538;48.884;8.696;2023-03-24T10:32:20;97820.19;;;15.67;87.72
22743;BME280;11538;48.884;8.696;2023-03-24T10:34:55;97819.47;;;15.70;88.50
22743;BME280;11538;48.884;8.696;2023-03-24T10:37:24;97829.97;;;15.68;87.92
22743;BME280;11538;48.884;8.696;2023-03-24T10:39:53;97828.84;;;15.69;88.03
22743;BME280;11538;48.884;8.696;2023-03-24T10:42:29;97831.41;;;15.61;86.52
22743;BME280;11538;48.884;8.696;2023-03-24T10:44:57;97840.41;;;15.62;88.99
22743;BME280;11538;48.884;8.696;2023-03-24T10:47:27;97842.50;;;15.69;88.93
22743;BME280;11538;48.884;8.696;2023-03-24T10:50:06;97837.19;;;15.76;86.00
22743;BME280;11538;48.884;8.696;2023-03-24T10:52:41;97839.03;;;15.88;83.81
22743;BME280;11538;48.884;8.696;2023-03-24T10:55:15;97832.81;;;16.07;84.45
22743;BME280;11538;48.884;8.696;2023-03-24T10:57:45;97840.00;;;16.35;82.39
22743;BME280;11538;48.884;8.696;2023-03-24T11:00:24;97834.34;;;16.47;80.10
22743;BME280;11538;48.884;8.696;2023-03-24T11:03:19;97857.31;;;16.43;79.02
22743;BME280;11538;48.884;8.696;2023-03-24T11:06:01;97855.69;;;16.38;79.79
22743;BME280;11538;48.884;8.696;2023-03-24T11:08:39;97879.88;;;16.36;82.03
22743;BME280;11538;48.884;8.696;2023-03-24T11:13:55;97868.56;;;16.18;85.71
22743;BME280;11538;48.884;8.696;2023-03-24T11:16:30;97864.63;;;16.35;85.74
22743;BME280;11538;48.884;8.696;2023-03-24T11:19:03;97872.81;;;16.35;85.85
22743;BME280;11538;48.884;8.696;2023-03-24T11:21:35;97873.59;;;16.16;86.15
22743;BME280;11538;48.884;8.696;2023-03-24T11:24:14;97881.75;;;16.12;85.11
22743;BME280;11538;48.884;8.696;2023-03-24T11:26:54;97888.72;;;16.10;83.70
22743;BME280;11538;48.884;8.696;2023-03-24T11:29:25;97900.88;;;15.92;86.28
22743;BME280;11538;48.884;8.696;2023-03-24T11:32:05;97894.41;;;15.85;87.21
22743;BME280;11538;48.884;8.696;2023-03-24T11:34:46;97894.81;;;15.67;86.59
22743;BME280;11538;48.884;8.696;2023-03-24T11:37:24;97891.53;;;15.61;88.21
22743;BME280;11538;48.884;8.696;2023-03-24T11:40:24;97900.19;;;15.63;88.50
22743;BME280;11538;48.884;8.696;2023-03-24T11:42:58;97886.41;;;15.76;86.92
22743;BME280;11538;48.884;8.696;2023-03-24T11:45:38;97896.44;;;16.04;84.82
22743;BME280;11538;48.884;8.696;2023-03-24T11:48:31;97876.63;;;16.30;84.17
22743;BME280;11538;48.884;8.696;2023-03-24T11:51:03;97874.69;;;16.31;83.44
22743;BME280;11538;48.884;8.696;2023-03-24T11:53:46;97889.25;;;16.15;84.17
22743;BME280;11538;48.884;8.696;2023-03-24T11:56:30;97874.91;;;16.22;84.80
22743;BME280;11538;48.884;8.696;2023-03-24T11:59:53;97880.31;;;16.18;85.72
22743;BME280;11538;48.884;8.696;2023-03-24T12:05:46;97882.03;;;16.27;85.17
22743;BME280;11538;48.884;8.696;2023-03-24T12:08:36;97863.19;;;16.21;82.74
22743;BME280;11538;48.884;8.696;2023-03-24T12:13:49;97868.00;;;16.28;82.60
22743;BME280;11538;48.884;8.696;2023-03-24T12:16:36;97879.66;;;16.25;82.26
22743;BME280;11538;48.884;8.696;2023-03-24T12:19:36;97875.91;;;16.14;81.42
22743;BME280;11538;48.884;8.696;2023-03-24T12:28:25;97894.25;;;15.77;83.10
22743;BME280;11538;48.884;8.696;2023-03-24T12:31:27;97890.66;;;15.57;82.63
22743;BME280;11538;48.884;8.696;2023-03-24T12:37:06;97926.81;;;15.34;85.11
22743;BME280;11538;48.884;8.696;2023-03-24T12:40:25;97928.47;;;14.91;87.40
22743;BME280;11538;48.884;8.696;2023-03-24T12:45:54;97936.13;;;14.03;91.81
22743;BME280;11538;48.884;8.696;2023-03-24T12:54:44;97967.03;;;13.45;96.08
22743;BME280;11538;48.884;8.696;2023-03-24T12:57:18;97973.34;;;13.37;100.00
22743;BME280;11538;48.884;8.696;2023-03-24T13:00:27;97961.38;;;13.17;100.00
22743;BME280;11538;48.884;8.696;2023-03-24T13:02:57;97964.94;;;12.96;100.00
22743;BME280;11538;48.884;8.696;2023-03-24T13:05:34;97982.38;;;12.83;100.00
22743;BME280;11538;48.884;8.696;2023-03-24T13:08:17;97978.41;;;12.80;100.00
22743;BME280;11538;48.884;8.696;2023-03-24T13:10:51;97973.03;;;12.71;100.00
22743;BME280;11538;48.884;8.696;2023-03-24T13:13:31;97954.66;;;12.68;100.00
22743;BME280;11538;48.884;8.696;2023-03-24T13:16:08;97967.59;;;12.71;100.00
22743;BME280;11538;48.884;8.696;2023-03-24T13:18:43;97958.50;;;12.67;100.00
22743;BME280;11538;48.884;8.696;2023-03-24T13:21:20;97967.78;;;12.66;100.00
22743;BME280;11538;48.884;8.696;2023-03-24T13:26:49;97973.19;;;12.54;100.00
22743;BME280;11538;48.884;8.696;2023-03-24T13:32:28;97962.09;;;12.38;100.00
22743;BME280;11538;48.884;8.696;2023-03-24T13:41:05;97951.22;;;12.17;100.00
22743;BME280;11538;48.884;8.696;2023-03-24T13:43:33;97962.38;;;12.24;100.00
22743;BME280;11538;48.884;8.696;2023-03-24T13:46:12;97958.03;;;12.44;100.00
22743;BME280;11538;48.884;8.696;2023-03-24T13:48:45;97959.97;;;12.65;100.00
22743;BME280;11538;48.884;8.696;2023-03-24T13:54:20;97960.81;;;12.78;100.00
22743;BME280;11538;48.884;8.696;2023-03-24T13:59:39;97967.47;;;12.47;100.00
22743;BME280;11538;48.884;8.696;2023-03-24T14:07:49;97964.91;;;12.29;100.00
22743;BME280;11538;48.884;8.696;2023-03-24T14:21:06;97949.97;;;12.35;100.00
22743;BME280;11538;48.884;8.696;2023-03-24T14:23:39;97947.06;;;12.40;100.00
22743;BME280;11538;48.884;8.696;2023-03-24T14:26:35;97946.19;;;12.49;100.00
22743;BME280;11538;48.884;8.696;2023-03-24T14:29:03;97944.19;;;12.58;100.00
22743;BME280;11538;48.884;8.696;2023-03-24T14:31:33;97949.88;;;12.65;100.00
22743;BME280;11538;48.884;8.696;2023-03-24T14:34:17;97950.13;;;12.72;100.00
22743;BME280;11538;48.884;8.696;2023-03-24T14:36:58;97941.31;;;12.76;100.00
22743;BME280;11538;48.884;8.696;2023-03-24T14:39:35;97925.69;;;12.85;100.00
22743;BME280;11538;48.884;8.696;2023-03-24T14:44:59;97926.50;;;12.85;100.00
22743;BME280;11538;48.884;8.696;2023-03-24T14:47:37;97934.97;;;12.84;100.00
22743;BME280;11538;48.884;8.696;2023-03-24T14:50:21;97939.97;;;12.82;100.00
22743;BME280;11538;48.884;8.696;2023-03-24T14:52:53;97937.38;;;12.85;100.00
22743;BME280;11538;48.884;8.696;2023-03-24T14:55:24;97931.94;;;12.85;100.00
22743;BME280;11538;48.884;8.696;2023-03-24T14:57:54;97927.53;;;12.93;100.00
22743;BME280;11538;48.884;8.696;2023-03-24T15:00:54;97926.16;;;12.99;100.00
22743;BME280;11538;48.884;8.696;2023-03-24T15:06:22;97945.28;;;13.24;100.00
22743;BME280;11538;48.884;8.696;2023-03-24T15:08:52;97936.19;;;13.20;100.00
22743;BME280;11538;48.884;8.696;2023-03-24T15:11:25;97921.72;;;13.28;100.00
22743;BME280;11538;48.884;8.696;2023-03-24T15:13:55;97914.09;;;13.34;100.00
22743;BME280;11538;48.884;8.696;2023-03-24T15:16:26;97905.38;;;13.41;100.00
22743;BME280;11538;48.884;8.696;2023-03-24T15:18:57;97896.31;;;13.49;100.00
22743;BME280;11538;48.884;8.696;2023-03-24T15:22:01;97889.16;;;13.57;100.00
22743;BME280;11538;48.884;8.696;2023-03-24T15:24:30;97876.56;;;13.65;100.00